sensor_id;sensor_type;location;lat;lon;timestamp;temperature;humidity
21255;DHT22;10785;50.674;17.954;2022-08-19T00:01:47;23.60;99.90
21255;DHT22;10785;50.674;17.954;2022-08-19T00:04:22;23.60;99.90
21255;DHT22;10785;50.674;17.954;2022-08-19T00:06:52;23.60;99.90
21255;DHT22;10785;50.674;17.954;2022-08-19T00:09:21;23.50;99.90
21255;DHT22;10785;50.674;17.954;2022-08-19T00:11:53;23.50;99.90
21255;DHT22;10785;50.674;17.954;2022-08-19T00:14:24;23.50;99.90
21255;DHT22;10785;50.674;17.954;2022-08-19T00:16:53;23.50;99.90
21255;DHT22;10785;50.674;17.954;2022-08-19T00:19:23;23.50;99.90
21255;DHT22;10785;50.674;17.954;2022-08-19T00:21:53;23.50;99.90
21255;DHT22;10785;50.674;17.954;2022-08-19T00:24:24;23.50;99.90
21255;DHT22;10785;50.674;17.954;2022-08-19T00:26:56;23.50;99.90
21255;DHT22;10785;50.674;17.954;2022-08-19T00:29:45;23.40;99.90
21255;DHT22;10785;50.674;17.954;2022-08-19T00:32:18;23.30;99.90
21255;DHT22;10785;50.674;17.954;2022-08-19T00:34:47;23.30;99.90
21255;DHT22;10785;50.674;17.954;2022-08-19T00:37:16;23.20;99.90
21255;DHT22;10785;50.674;17.954;2022-08-19T00:39:47;23.20;99.90
21255;DHT22;10785;50.674;17.954;2022-08-19T00:42:17;23.10;99.90
21255;DHT22;10785;50.674;17.954;2022-08-19T00:44:47;23.10;99.90
21255;DHT22;10785;50.674;17.954;2022-08-19T00:47:16;23.10;99.90
21255;DHT22;10785;50.674;17.954;2022-08-19T00:49:47;23.00;99.90
21255;DHT22;10785;50.674;17.954;2022-08-19T00:52:23;23.00;99.90
21255;DHT22;10785;50.674;17.954;2022-08-19T00:54:52;22.90;99.90
21255;DHT22;10785;50.674;17.954;2022-08-19T00:57:27;22.90;99.90
21255;DHT22;10785;50.674;17.954;2022-08-19T00:59:58;22.80;99.90
21255;DHT22;10785;50.674;17.954;2022-08-19T01:02:32;22.80;99.90
21255;DHT22;10785;50.674;17.954;2022-08-19T01:05:04;22.80;99.90
21255;DHT22;10785;50.674;17.954;2022-08-19T01:07:33;22.70;99.90
21255;DHT22;10785;50.674;17.954;2022-08-19T01:10:06;22.70;99.90
21255;DHT22;10785;50.674;17.954;2022-08-19T01:12:38;22.70;99.90
21255;DHT22;10785;50.674;17.954;2022-08-19T01:15:10;22.60;99.90
21255;DHT22;10785;50.674;17.954;2022-08-19T01:17:40;22.60;99.90
21255;DHT22;10785;50.674;17.954;2022-08-19T01:20:11;22.60;99.90
21255;DHT22;10785;50.674;17.954;2022-08-19T01:22:44;22.60;99.90
21255;DHT22;10785;50.674;17.954;2022-08-19T01:25:16;22.50;99.90
21255;DHT22;10785;50.674;17.954;2022-08-19T01:27:48;22.50;99.90
21255;DHT22;10785;50.674;17.954;2022-08-19T01:30:22;22.50;99.90
21255;DHT22;10785;50.674;17.954;2022-08-19T01:32:53;22.50;99.90
21255;DHT22;10785;50.674;17.954;2022-08-19T01:35:24;22.50;99.90
21255;DHT22;10785;50.674;17.954;2022-08-19T01:37:59;22.40;99.90
21255;DHT22;10785;50.674;17.954;2022-08-19T01:40:31;22.40;99.90
21255;DHT22;10785;50.674;17.954;2022-08-19T01:43:01;22.40;99.90
21255;DHT22;10785;50.674;17.954;2022-08-19T01:45:32;22.40;99.90
21255;DHT22;10785;50.674;17.954;2022-08-19T01:48:01;22.40;99.90
21255;DHT22;10785;50.674;17.954;2022-08-19T01:50:32;22.30;99.90
21255;DHT22;10785;50.674;17.954;2022-08-19T01:53:06;22.30;99.90
21255;DHT22;10785;50.674;17.954;2022-08-19T01:55:36;22.30;99.90
21255;DHT22;10785;50.674;17.954;2022-08-19T01:58:10;22.30;99.90
21255;DHT22;10785;50.674;17.954;2022-08-19T02:00:42;22.20;99.90
21255;DHT22;10785;50.674;17.954;2022-08-19T02:03:14;22.20;99.90
21255;DHT22;10785;50.674;17.954;2022-08-19T02:05:43;22.10;99.90
21255;DHT22;10785;50.674;17.954;2022-08-19T02:08:14;22.10;99.90
21255;DHT22;10785;50.674;17.954;2022-08-19T02:10:43;22.00;99.90
21255;DHT22;10785;50.674;17.954;2022-08-19T02:13:13;22.00;99.90
21255;DHT22;10785;50.674;17.954;2022-08-19T02:16:12;22.00;99.90
21255;DHT22;10785;50.674;17.954;2022-08-19T02:18:40;21.90;99.90
21255;DHT22;10785;50.674;17.954;2022-08-19T02:21:09;21.90;99.90
21255;DHT22;10785;50.674;17.954;2022-08-19T02:23:40;21.80;99.90
21255;DHT22;10785;50.674;17.954;2022-08-19T02:26:09;21.80;99.90
21255;DHT22;10785;50.674;17.954;2022-08-19T02:28:38;21.80;99.90
21255;DHT22;10785;50.674;17.954;2022-08-19T02:31:09;21.70;99.90
21255;DHT22;10785;50.674;17.954;2022-08-19T02:33:38;21.70;99.90
21255;DHT22;10785;50.674;17.954;2022-08-19T02:36:09;21.70;99.90
21255;DHT22;10785;50.674;17.954;2022-08-19T02:38:39;21.70;99.90
21255;DHT22;10785;50.674;17.954;2022-08-19T02:41:11;21.70;99.90
21255;DHT22;10785;50.674;17.954;2022-08-19T02:43:41;21.60;99.90
21255;DHT22;10785;50.674;17.954;2022-08-19T02:46:31;21.60;99.90
21255;DHT22;10785;50.674;17.954;2022-08-19T02:49:02;21.60;99.90
21255;DHT22;10785;50.674;17.954;2022-08-19T02:51:34;21.60;99.90
21255;DHT22;10785;50.674;17.954;2022-08-19T02:54:05;21.60;99.90
21255;DHT22;10785;50.674;17.954;2022-08-19T02:56:35;21.60;99.90
21255;DHT22;10785;50.674;17.954;2022-08-19T02:59:05;21.60;99.90
21255;DHT22;10785;50.674;17.954;2022-08-19T03:01:38;21.60;99.90
21255;DHT22;10785;50.674;17.954;2022-08-19T03:04:09;21.60;99.90
21255;DHT22;10785;50.674;17.954;2022-08-19T03:06:40;21.60;99.90
21255;DHT22;10785;50.674;17.954;2022-08-19T03:09:11;21.50;99.90
21255;DHT22;10785;50.674;17.954;2022-08-19T03:11:41;21.50;99.90
21255;DHT22;10785;50.674;17.954;2022-08-19T03:14:10;21.50;99.90
21255;DHT22;10785;50.674;17.954;2022-08-19T03:16:43;21.50;99.90
21255;DHT22;10785;50.674;17.954;2022-08-19T03:19:12;21.40;99.90
21255;DHT22;10785;50.674;17.954;2022-08-19T03:21:43;21.40;99.90
21255;DHT22;10785;50.674;17.954;2022-08-19T03:24:14;21.40;99.90
21255;DHT22;10785;50.674;17.954;2022-08-19T03:26:45;21.30;99.90
21255;DHT22;10785;50.674;17.954;2022-08-19T03:29:15;21.30;99.90
21255;DHT22;10785;50.674;17.954;2022-08-19T03:31:57;21.30;99.90
21255;DHT22;10785;50.674;17.954;2022-08-19T03:34:29;21.30;99.90
21255;DHT22;10785;50.674;17.954;2022-08-19T03:37:05;21.20;99.90
21255;DHT22;10785;50.674;17.954;2022-08-19T03:39:37;21.20;99.90
21255;DHT22;10785;50.674;17.954;2022-08-19T03:42:06;21.20;99.90
21255;DHT22;10785;50.674;17.954;2022-08-19T03:44:55;21.20;99.90
21255;DHT22;10785;50.674;17.954;2022-08-19T03:47:23;21.20;99.90
21255;DHT22;10785;50.674;17.954;2022-08-19T03:49:52;21.20;99.90
21255;DHT22;10785;50.674;17.954;2022-08-19T03:52:21;21.20;99.90
21255;DHT22;10785;50.674;17.954;2022-08-19T03:54:51;21.30;99.90
21255;DHT22;10785;50.674;17.954;2022-08-19T03:57:20;21.30;99.90
21255;DHT22;10785;50.674;17.954;2022-08-19T03:59:58;21.30;99.90
21255;DHT22;10785;50.674;17.954;2022-08-19T04:06:11;21.40;99.90
21255;DHT22;10785;50.674;17.954;2022-08-19T04:08:40;21.40;99.90
21255;DHT22;10785;50.674;17.954;2022-08-19T04:11:13;21.40;99.90
21255;DHT22;10785;50.674;17.954;2022-08-19T04:13:43;21.50;99.90
21255;DHT22;10785;50.674;17.954;2022-08-19T04:16:15;21.50;99.90
21255;DHT22;10785;50.674;17.954;2022-08-19T04:18:44;21.60;99.90
21255;DHT22;10785;50.674;17.954;2022-08-19T04:21:17;21.80;99.90
21255;DHT22;10785;50.674;17.954;2022-08-19T04:23:47;22.00;99.90
21255;DHT22;10785;50.674;17.954;2022-08-19T04:26:23;22.20;99.90
21255;DHT22;10785;50.674;17.954;2022-08-19T04:28:52;22.30;99.90
21255;DHT22;10785;50.674;17.954;2022-08-19T04:31:25;22.40;99.90
21255;DHT22;10785;50.674;17.954;2022-08-19T04:33:59;22.40;99.90
21255;DHT22;10785;50.674;17.954;2022-08-19T04:36:31;22.40;99.90
21255;DHT22;10785;50.674;17.954;2022-08-19T04:39:04;22.50;99.90
21255;DHT22;10785;50.674;17.954;2022-08-19T04:41:34;22.70;99.90
21255;DHT22;10785;50.674;17.954;2022-08-19T04:44:20;22.80;99.90
21255;DHT22;10785;50.674;17.954;2022-08-19T04:46:50;22.90;99.90
21255;DHT22;10785;50.674;17.954;2022-08-19T04:49:20;22.90;99.90
21255;DHT22;10785;50.674;17.954;2022-08-19T04:51:51;22.80;99.90
21255;DHT22;10785;50.674;17.954;2022-08-19T04:54:22;22.90;99.90
21255;DHT22;10785;50.674;17.954;2022-08-19T04:57:07;22.90;99.90
21255;DHT22;10785;50.674;17.954;2022-08-19T04:59:38;23.00;99.90
21255;DHT22;10785;50.674;17.954;2022-08-19T05:02:08;23.20;99.90
21255;DHT22;10785;50.674;17.954;2022-08-19T05:04:39;23.40;99.90
21255;DHT22;10785;50.674;17.954;2022-08-19T05:07:08;23.80;99.90
21255;DHT22;10785;50.674;17.954;2022-08-19T05:09:37;24.30;99.90
21255;DHT22;10785;50.674;17.954;2022-08-19T05:12:26;24.70;99.90
21255;DHT22;10785;50.674;17.954;2022-08-19T05:14:56;25.30;99.90
21255;DHT22;10785;50.674;17.954;2022-08-19T05:17:25;25.70;99.90
21255;DHT22;10785;50.674;17.954;2022-08-19T05:19:59;26.10;99.90
21255;DHT22;10785;50.674;17.954;2022-08-19T05:22:46;26.20;99.90
21255;DHT22;10785;50.674;17.954;2022-08-19T05:25:17;26.40;99.90
21255;DHT22;10785;50.674;17.954;2022-08-19T05:27:48;26.40;99.90
21255;DHT22;10785;50.674;17.954;2022-08-19T05:30:17;26.80;99.30
21255;DHT22;10785;50.674;17.954;2022-08-19T05:33:06;26.90;98.40
21255;DHT22;10785;50.674;17.954;2022-08-19T05:35:37;27.20;97.10
21255;DHT22;10785;50.674;17.954;2022-08-19T05:38:06;27.40;96.30
21255;DHT22;10785;50.674;17.954;2022-08-19T05:40:36;27.40;95.90
21255;DHT22;10785;50.674;17.954;2022-08-19T05:43:07;27.60;94.80
21255;DHT22;10785;50.674;17.954;2022-08-19T05:45:38;27.60;95.00
21255;DHT22;10785;50.674;17.954;2022-08-19T05:48:08;27.50;94.60
21255;DHT22;10785;50.674;17.954;2022-08-19T05:50:39;27.40;94.30
21255;DHT22;10785;50.674;17.954;2022-08-19T05:53:08;27.30;94.50
21255;DHT22;10785;50.674;17.954;2022-08-19T05:55:36;27.30;94.30
21255;DHT22;10785;50.674;17.954;2022-08-19T05:58:08;27.50;93.80
21255;DHT22;10785;50.674;17.954;2022-08-19T06:00:37;27.90;92.20
21255;DHT22;10785;50.674;17.954;2022-08-19T06:03:05;28.30;90.80
21255;DHT22;10785;50.674;17.954;2022-08-19T06:05:40;28.60;87.90
21255;DHT22;10785;50.674;17.954;2022-08-19T06:08:19;29.20;78.50
21255;DHT22;10785;50.674;17.954;2022-08-19T06:11:15;29.70;69.70
21255;DHT22;10785;50.674;17.954;2022-08-19T06:13:47;29.90;61.00
21255;DHT22;10785;50.674;17.954;2022-08-19T06:16:26;29.80;56.60
21255;DHT22;10785;50.674;17.954;2022-08-19T06:18:55;29.70;54.70
21255;DHT22;10785;50.674;17.954;2022-08-19T06:21:27;29.70;53.10
21255;DHT22;10785;50.674;17.954;2022-08-19T06:23:57;29.80;52.70
21255;DHT22;10785;50.674;17.954;2022-08-19T06:26:27;30.40;49.80
21255;DHT22;10785;50.674;17.954;2022-08-19T06:28:57;30.50;45.70
21255;DHT22;10785;50.674;17.954;2022-08-19T06:31:28;30.30;45.80
21255;DHT22;10785;50.674;17.954;2022-08-19T06:34:00;30.60;42.40
21255;DHT22;10785;50.674;17.954;2022-08-19T06:36:32;30.70;41.40
21255;DHT22;10785;50.674;17.954;2022-08-19T06:39:02;30.80;38.50
21255;DHT22;10785;50.674;17.954;2022-08-19T06:41:34;31.20;38.20
21255;DHT22;10785;50.674;17.954;2022-08-19T06:44:18;31.30;35.50
21255;DHT22;10785;50.674;17.954;2022-08-19T06:46:47;31.40;34.10
21255;DHT22;10785;50.674;17.954;2022-08-19T06:49:21;31.30;34.30
21255;DHT22;10785;50.674;17.954;2022-08-19T06:51:50;31.70;32.30
21255;DHT22;10785;50.674;17.954;2022-08-19T06:54:19;31.80;30.30
21255;DHT22;10785;50.674;17.954;2022-08-19T06:56:49;31.80;31.90
21255;DHT22;10785;50.674;17.954;2022-08-19T06:59:21;32.30;28.20
21255;DHT22;10785;50.674;17.954;2022-08-19T07:01:51;32.20;25.30
21255;DHT22;10785;50.674;17.954;2022-08-19T07:04:23;32.10;23.80
21255;DHT22;10785;50.674;17.954;2022-08-19T07:06:57;31.90;24.10
21255;DHT22;10785;50.674;17.954;2022-08-19T07:09:46;31.90;24.20
21255;DHT22;10785;50.674;17.954;2022-08-19T07:12:30;32.30;23.00
21255;DHT22;10785;50.674;17.954;2022-08-19T07:15:08;32.20;22.40
21255;DHT22;10785;50.674;17.954;2022-08-19T07:17:38;32.40;21.50
21255;DHT22;10785;50.674;17.954;2022-08-19T07:20:09;32.00;21.90
21255;DHT22;10785;50.674;17.954;2022-08-19T07:22:39;31.50;22.30
21255;DHT22;10785;50.674;17.954;2022-08-19T07:25:08;31.40;22.70
21255;DHT22;10785;50.674;17.954;2022-08-19T07:27:37;31.40;22.60
21255;DHT22;10785;50.674;17.954;2022-08-19T07:30:08;31.50;22.10
21255;DHT22;10785;50.674;17.954;2022-08-19T07:32:40;31.50;21.70
21255;DHT22;10785;50.674;17.954;2022-08-19T07:35:11;31.40;21.70
21255;DHT22;10785;50.674;17.954;2022-08-19T07:37:42;31.10;22.50
21255;DHT22;10785;50.674;17.954;2022-08-19T07:40:11;31.30;21.90
21255;DHT22;10785;50.674;17.954;2022-08-19T07:42:41;31.20;22.10
21255;DHT22;10785;50.674;17.954;2022-08-19T07:45:12;31.30;22.80
21255;DHT22;10785;50.674;17.954;2022-08-19T07:47:40;31.70;22.30
21255;DHT22;10785;50.674;17.954;2022-08-19T07:50:20;31.70;21.40
21255;DHT22;10785;50.674;17.954;2022-08-19T07:52:50;31.60;21.10
21255;DHT22;10785;50.674;17.954;2022-08-19T07:55:21;31.50;21.20
21255;DHT22;10785;50.674;17.954;2022-08-19T07:58:11;31.40;21.10
21255;DHT22;10785;50.674;17.954;2022-08-19T08:00:41;31.00;22.00
21255;DHT22;10785;50.674;17.954;2022-08-19T08:03:11;31.00;22.40
21255;DHT22;10785;50.674;17.954;2022-08-19T08:05:39;31.10;23.00
21255;DHT22;10785;50.674;17.954;2022-08-19T08:08:26;31.00;22.00
21255;DHT22;10785;50.674;17.954;2022-08-19T08:11:17;31.10;22.70
21255;DHT22;10785;50.674;17.954;2022-08-19T08:13:47;31.20;23.00
21255;DHT22;10785;50.674;17.954;2022-08-19T08:16:28;31.30;22.90
21255;DHT22;10785;50.674;17.954;2022-08-19T08:18:58;31.40;22.10
21255;DHT22;10785;50.674;17.954;2022-08-19T08:21:30;31.30;22.30
21255;DHT22;10785;50.674;17.954;2022-08-19T08:24:11;31.10;23.10
21255;DHT22;10785;50.674;17.954;2022-08-19T08:26:40;30.60;23.80
21255;DHT22;10785;50.674;17.954;2022-08-19T08:29:18;30.60;24.50
21255;DHT22;10785;50.674;17.954;2022-08-19T08:31:56;30.30;25.10
21255;DHT22;10785;50.674;17.954;2022-08-19T08:34:26;30.10;25.90
21255;DHT22;10785;50.674;17.954;2022-08-19T08:36:54;29.80;26.20
21255;DHT22;10785;50.674;17.954;2022-08-19T08:39:23;29.80;26.40
21255;DHT22;10785;50.674;17.954;2022-08-19T08:42:01;29.90;26.30
21255;DHT22;10785;50.674;17.954;2022-08-19T08:44:50;29.90;26.70
21255;DHT22;10785;50.674;17.954;2022-08-19T08:47:30;30.00;26.50
21255;DHT22;10785;50.674;17.954;2022-08-19T08:50:10;30.00;27.00
21255;DHT22;10785;50.674;17.954;2022-08-19T08:52:45;30.00;26.80
21255;DHT22;10785;50.674;17.954;2022-08-19T08:55:18;30.00;27.60
21255;DHT22;10785;50.674;17.954;2022-08-19T08:57:53;30.10;27.00
21255;DHT22;10785;50.674;17.954;2022-08-19T09:00:25;30.00;27.30
21255;DHT22;10785;50.674;17.954;2022-08-19T09:02:57;30.00;27.20
21255;DHT22;10785;50.674;17.954;2022-08-19T09:05:33;30.00;27.80
21255;DHT22;10785;50.674;17.954;2022-08-19T09:08:20;30.20;28.50
21255;DHT22;10785;50.674;17.954;2022-08-19T09:10:54;30.30;28.00
21255;DHT22;10785;50.674;17.954;2022-08-19T09:13:29;30.20;28.00
21255;DHT22;10785;50.674;17.954;2022-08-19T09:16:07;30.10;28.60
21255;DHT22;10785;50.674;17.954;2022-08-19T09:18:41;30.00;29.00
21255;DHT22;10785;50.674;17.954;2022-08-19T09:21:12;29.90;29.80
21255;DHT22;10785;50.674;17.954;2022-08-19T09:23:41;30.00;30.60
21255;DHT22;10785;50.674;17.954;2022-08-19T09:26:13;30.00;30.20
21255;DHT22;10785;50.674;17.954;2022-08-19T09:28:44;30.10;30.90
21255;DHT22;10785;50.674;17.954;2022-08-19T09:31:17;30.40;30.00
21255;DHT22;10785;50.674;17.954;2022-08-19T09:33:48;30.40;29.50
21255;DHT22;10785;50.674;17.954;2022-08-19T09:36:22;30.60;29.30
21255;DHT22;10785;50.674;17.954;2022-08-19T09:39:01;30.90;29.60
21255;DHT22;10785;50.674;17.954;2022-08-19T09:41:30;31.20;26.70
21255;DHT22;10785;50.674;17.954;2022-08-19T09:44:00;31.20;27.80
21255;DHT22;10785;50.674;17.954;2022-08-19T09:46:29;31.50;27.10
21255;DHT22;10785;50.674;17.954;2022-08-19T09:49:00;31.70;26.40
21255;DHT22;10785;50.674;17.954;2022-08-19T09:51:33;31.80;26.80
21255;DHT22;10785;50.674;17.954;2022-08-19T09:54:04;31.90;24.10
21255;DHT22;10785;50.674;17.954;2022-08-19T09:56:32;32.10;24.50
21255;DHT22;10785;50.674;17.954;2022-08-19T09:59:02;32.10;24.10
21255;DHT22;10785;50.674;17.954;2022-08-19T10:01:32;32.00;24.10
21255;DHT22;10785;50.674;17.954;2022-08-19T10:04:02;32.20;22.80
21255;DHT22;10785;50.674;17.954;2022-08-19T10:06:47;32.10;23.40
21255;DHT22;10785;50.674;17.954;2022-08-19T10:09:20;32.20;19.00
21255;DHT22;10785;50.674;17.954;2022-08-19T10:11:59;32.40;20.10
21255;DHT22;10785;50.674;17.954;2022-08-19T10:14:29;32.60;17.60
21255;DHT22;10785;50.674;17.954;2022-08-19T10:16:58;32.50;16.30
21255;DHT22;10785;50.674;17.954;2022-08-19T10:19:45;32.70;17.00
21255;DHT22;10785;50.674;17.954;2022-08-19T10:22:22;32.80;15.30
21255;DHT22;10785;50.674;17.954;2022-08-19T10:24:52;32.60;14.60
21255;DHT22;10785;50.674;17.954;2022-08-19T10:27:21;32.40;15.30
21255;DHT22;10785;50.674;17.954;2022-08-19T10:29:52;32.50;14.90
21255;DHT22;10785;50.674;17.954;2022-08-19T10:32:21;32.70;15.20
21255;DHT22;10785;50.674;17.954;2022-08-19T10:35:02;32.90;15.10
21255;DHT22;10785;50.674;17.954;2022-08-19T10:37:33;33.00;15.20
21255;DHT22;10785;50.674;17.954;2022-08-19T10:40:03;33.10;15.40
21255;DHT22;10785;50.674;17.954;2022-08-19T10:42:32;33.10;14.80
21255;DHT22;10785;50.674;17.954;2022-08-19T10:45:00;33.00;14.50
21255;DHT22;10785;50.674;17.954;2022-08-19T10:47:31;32.70;14.40
21255;DHT22;10785;50.674;17.954;2022-08-19T10:50:01;32.60;13.60
21255;DHT22;10785;50.674;17.954;2022-08-19T10:52:54;32.70;14.00
21255;DHT22;10785;50.674;17.954;2022-08-19T10:55:24;32.90;14.20
21255;DHT22;10785;50.674;17.954;2022-08-19T10:58:11;33.00;13.20
21255;DHT22;10785;50.674;17.954;2022-08-19T11:00:40;33.10;13.20
21255;DHT22;10785;50.674;17.954;2022-08-19T11:03:11;33.30;13.50
21255;DHT22;10785;50.674;17.954;2022-08-19T11:05:41;33.30;12.40
21255;DHT22;10785;50.674;17.954;2022-08-19T11:08:10;33.10;12.00
21255;DHT22;10785;50.674;17.954;2022-08-19T11:10:51;33.00;12.20
21255;DHT22;10785;50.674;17.954;2022-08-19T11:13:28;32.90;13.40
21255;DHT22;10785;50.674;17.954;2022-08-19T11:15:59;32.90;13.10
21255;DHT22;10785;50.674;17.954;2022-08-19T11:18:35;32.90;12.50
21255;DHT22;10785;50.674;17.954;2022-08-19T11:21:11;32.70;13.30
21255;DHT22;10785;50.674;17.954;2022-08-19T11:23:40;32.70;13.20
21255;DHT22;10785;50.674;17.954;2022-08-19T11:26:09;32.70;12.70
21255;DHT22;10785;50.674;17.954;2022-08-19T11:28:38;32.90;12.50
21255;DHT22;10785;50.674;17.954;2022-08-19T11:31:10;33.10;12.00
21255;DHT22;10785;50.674;17.954;2022-08-19T11:33:39;33.30;11.80
21255;DHT22;10785;50.674;17.954;2022-08-19T11:36:16;33.70;11.70
21255;DHT22;10785;50.674;17.954;2022-08-19T11:38:45;33.70;11.10
21255;DHT22;10785;50.674;17.954;2022-08-19T11:41:17;33.70;11.00
21255;DHT22;10785;50.674;17.954;2022-08-19T11:43:46;33.70;10.90
21255;DHT22;10785;50.674;17.954;2022-08-19T11:46:16;33.90;10.50
21255;DHT22;10785;50.674;17.954;2022-08-19T11:48:45;33.70;11.00
21255;DHT22;10785;50.674;17.954;2022-08-19T11:51:18;33.70;11.00
21255;DHT22;10785;50.674;17.954;2022-08-19T11:53:47;33.60;10.80
21255;DHT22;10785;50.674;17.954;2022-08-19T11:56:18;33.70;10.90
21255;DHT22;10785;50.674;17.954;2022-08-19T11:58:47;33.80;11.00
21255;DHT22;10785;50.674;17.954;2022-08-19T12:01:18;33.90;11.10
21255;DHT22;10785;50.674;17.954;2022-08-19T12:03:49;33.90;11.00
21255;DHT22;10785;50.674;17.954;2022-08-19T12:06:23;33.90;10.90
21255;DHT22;10785;50.674;17.954;2022-08-19T12:08:56;33.90;10.90
21255;DHT22;10785;50.674;17.954;2022-08-19T12:11:25;33.80;11.00
21255;DHT22;10785;50.674;17.954;2022-08-19T12:13:57;33.80;11.30
21255;DHT22;10785;50.674;17.954;2022-08-19T12:16:27;33.80;11.20
21255;DHT22;10785;50.674;17.954;2022-08-19T12:18:59;33.80;11.00
21255;DHT22;10785;50.674;17.954;2022-08-19T12:21:34;33.60;11.20
21255;DHT22;10785;50.674;17.954;2022-08-19T12:24:04;33.70;10.80
21255;DHT22;10785;50.674;17.954;2022-08-19T12:26:33;33.80;10.90
21255;DHT22;10785;50.674;17.954;2022-08-19T12:29:20;34.00;10.50
21255;DHT22;10785;50.674;17.954;2022-08-19T12:31:50;34.10;10.20
21255;DHT22;10785;50.674;17.954;2022-08-19T12:34:19;33.90;10.20
21255;DHT22;10785;50.674;17.954;2022-08-19T12:36:49;33.90;10.40
21255;DHT22;10785;50.674;17.954;2022-08-19T12:39:18;33.90;10.20
21255;DHT22;10785;50.674;17.954;2022-08-19T12:41:46;34.00;10.40
21255;DHT22;10785;50.674;17.954;2022-08-19T12:44:21;33.70;10.80
21255;DHT22;10785;50.674;17.954;2022-08-19T12:46:56;33.40;11.10
21255;DHT22;10785;50.674;17.954;2022-08-19T12:49:24;33.30;11.30
21255;DHT22;10785;50.674;17.954;2022-08-19T12:52:15;33.40;11.70
21255;DHT22;10785;50.674;17.954;2022-08-19T12:54:50;33.40;11.40
21255;DHT22;10785;50.674;17.954;2022-08-19T12:57:20;33.60;11.50
21255;DHT22;10785;50.674;17.954;2022-08-19T13:00:01;33.70;11.10
21255;DHT22;10785;50.674;17.954;2022-08-19T13:02:32;33.40;11.40
21255;DHT22;10785;50.674;17.954;2022-08-19T13:05:08;33.40;11.70
21255;DHT22;10785;50.674;17.954;2022-08-19T13:07:40;33.30;11.70
21255;DHT22;10785;50.674;17.954;2022-08-19T13:10:14;33.30;11.60
21255;DHT22;10785;50.674;17.954;2022-08-19T13:12:43;33.30;11.90
21255;DHT22;10785;50.674;17.954;2022-08-19T13:15:12;33.40;11.90
21255;DHT22;10785;50.674;17.954;2022-08-19T13:17:44;33.50;12.00
21255;DHT22;10785;50.674;17.954;2022-08-19T13:20:15;33.50;11.50
21255;DHT22;10785;50.674;17.954;2022-08-19T13:22:46;33.50;11.70
21255;DHT22;10785;50.674;17.954;2022-08-19T13:25:16;33.40;11.90
21255;DHT22;10785;50.674;17.954;2022-08-19T13:27:47;33.30;12.00
21255;DHT22;10785;50.674;17.954;2022-08-19T13:30:16;33.30;12.20
21255;DHT22;10785;50.674;17.954;2022-08-19T13:33:02;33.30;12.00
21255;DHT22;10785;50.674;17.954;2022-08-19T13:35:46;33.40;12.60
21255;DHT22;10785;50.674;17.954;2022-08-19T13:38:19;33.70;12.40
21255;DHT22;10785;50.674;17.954;2022-08-19T13:40:49;33.70;11.20
21255;DHT22;10785;50.674;17.954;2022-08-19T13:43:20;33.70;11.50
21255;DHT22;10785;50.674;17.954;2022-08-19T13:45:50;33.70;11.20
21255;DHT22;10785;50.674;17.954;2022-08-19T13:48:24;33.70;11.50
21255;DHT22;10785;50.674;17.954;2022-08-19T13:50:54;33.50;11.60
21255;DHT22;10785;50.674;17.954;2022-08-19T13:53:24;33.60;11.40
21255;DHT22;10785;50.674;17.954;2022-08-19T13:55:53;33.60;11.60
21255;DHT22;10785;50.674;17.954;2022-08-19T13:58:22;33.80;11.80
21255;DHT22;10785;50.674;17.954;2022-08-19T14:00:50;33.70;12.10
21255;DHT22;10785;50.674;17.954;2022-08-19T14:03:19;33.50;12.80
21255;DHT22;10785;50.674;17.954;2022-08-19T14:05:48;33.70;13.10
21255;DHT22;10785;50.674;17.954;2022-08-19T14:08:17;33.80;13.30
21255;DHT22;10785;50.674;17.954;2022-08-19T14:10:47;33.80;12.90
21255;DHT22;10785;50.674;17.954;2022-08-19T14:13:17;33.80;13.20
21255;DHT22;10785;50.674;17.954;2022-08-19T14:15:46;33.90;13.00
21255;DHT22;10785;50.674;17.954;2022-08-19T14:18:16;33.90;13.00
21255;DHT22;10785;50.674;17.954;2022-08-19T14:20:45;33.70;12.80
21255;DHT22;10785;50.674;17.954;2022-08-19T14:23:13;33.60;12.70
21255;DHT22;10785;50.674;17.954;2022-08-19T14:25:43;33.70;12.80
21255;DHT22;10785;50.674;17.954;2022-08-19T14:28:13;33.40;12.80
21255;DHT22;10785;50.674;17.954;2022-08-19T14:30:41;33.40;13.00
21255;DHT22;10785;50.674;17.954;2022-08-19T14:33:12;33.40;13.30
21255;DHT22;10785;50.674;17.954;2022-08-19T14:35:41;33.50;13.20
21255;DHT22;10785;50.674;17.954;2022-08-19T14:38:17;33.40;13.10
21255;DHT22;10785;50.674;17.954;2022-08-19T14:41:10;33.40;13.50
21255;DHT22;10785;50.674;17.954;2022-08-19T14:43:40;33.30;13.50
21255;DHT22;10785;50.674;17.954;2022-08-19T14:46:08;33.30;13.90
21255;DHT22;10785;50.674;17.954;2022-08-19T14:48:37;33.20;13.60
21255;DHT22;10785;50.674;17.954;2022-08-19T14:51:08;33.10;14.00
21255;DHT22;10785;50.674;17.954;2022-08-19T14:53:36;33.10;14.20
21255;DHT22;10785;50.674;17.954;2022-08-19T14:56:08;33.00;14.30
21255;DHT22;10785;50.674;17.954;2022-08-19T14:58:37;32.90;14.10
21255;DHT22;10785;50.674;17.954;2022-08-19T15:01:07;32.90;14.40
21255;DHT22;10785;50.674;17.954;2022-08-19T15:03:36;32.90;14.30
21255;DHT22;10785;50.674;17.954;2022-08-19T15:06:05;32.90;14.60
21255;DHT22;10785;50.674;17.954;2022-08-19T15:08:40;32.90;15.00
21255;DHT22;10785;50.674;17.954;2022-08-19T15:11:13;32.90;14.50
21255;DHT22;10785;50.674;17.954;2022-08-19T15:13:43;32.90;14.50
21255;DHT22;10785;50.674;17.954;2022-08-19T15:16:15;32.70;14.60
21255;DHT22;10785;50.674;17.954;2022-08-19T15:18:45;32.50;14.60
21255;DHT22;10785;50.674;17.954;2022-08-19T15:21:15;32.50;14.90
21255;DHT22;10785;50.674;17.954;2022-08-19T15:23:53;32.50;14.70
21255;DHT22;10785;50.674;17.954;2022-08-19T15:26:22;32.40;14.90
21255;DHT22;10785;50.674;17.954;2022-08-19T15:28:52;32.30;15.40
21255;DHT22;10785;50.674;17.954;2022-08-19T15:31:22;32.30;15.60
21255;DHT22;10785;50.674;17.954;2022-08-19T15:33:55;32.20;16.20
21255;DHT22;10785;50.674;17.954;2022-08-19T15:36:25;32.10;16.60
21255;DHT22;10785;50.674;17.954;2022-08-19T15:38:54;32.00;16.90
21255;DHT22;10785;50.674;17.954;2022-08-19T15:41:25;32.00;17.10
21255;DHT22;10785;50.674;17.954;2022-08-19T15:43:56;31.90;17.40
21255;DHT22;10785;50.674;17.954;2022-08-19T15:46:29;31.80;17.60
21255;DHT22;10785;50.674;17.954;2022-08-19T15:48:59;31.60;18.10
21255;DHT22;10785;50.674;17.954;2022-08-19T15:51:30;31.60;18.30